Time;durP1;ratioP1;P1;durP2;ratioP2;P2;SDS_P1;SDS_P2;PMS_P1;PMS_P2;Temp;Humidity;BMP_temperature;BMP_pressure;BME280_temperature;BME280_humidity;BME280_pressure;Samples;Min_cycle;Max_cycle;Signal;HPM_P1;HPM_P2
2022/06/18 00:02:09;;;;;;;;;18.50;12.50;;;;;;;;5079021;27;51519;-58
2022/06/18 00:04:53;;;;;;;;;11.50;9.00;;;;;;;;5079868;27;51074;-58
2022/06/18 00:07:40;;;;;;;;;13.75;9.25;;;;;;;;5078154;27;51128;-58
2022/06/18 00:10:28;;;;;;;;;11.00;8.75;;;;;;;;5079110;27;51158;-58
2022/06/18 00:16:21;;;;;;;;;27.75;20.25;;;;;;;;5078787;27;51127;-58
2022/06/18 00:19:08;;;;;;;;;26.25;21.25;;;;;;;;5080762;27;51158;-60
2022/06/18 00:21:52;;;;;;;;;13.50;13.50;;;;;;;;5079431;27;51600;-59
2022/06/18 00:24:37;;;;;;;;;24.75;17.50;;;;;;;;5081057;27;51121;-58
2022/06/18 00:27:27;;;;;;;;;14.00;12.75;;;;;;;;5079489;27;51156;-58
2022/06/18 00:30:14;;;;;;;;;12.75;12.75;;;;;;;;5080910;27;51106;-58
2022/06/18 00:32:58;;;;;;;;;15.50;12.25;;;;;;;;5081229;27;51071;-57
2022/06/18 00:35:47;;;;;;;;;9.50;9.25;;;;;;;;5081443;27;51119;-57
2022/06/18 00:38:37;;;;;;;;;16.50;13.50;;;;;;;;5081431;27;51160;-57
2022/06/18 00:41:34;;;;;;;;;21.75;18.50;;;;;;;;5081002;27;51125;-57
2022/06/18 00:44:27;;;;;;;;;18.25;17.50;;;;;;;;5081380;27;51150;-58
2022/06/18 00:47:20;;;;;;;;;22.75;18.50;;;;;;;;5079964;27;51268;-58
2022/06/18 00:50:17;;;;;;;;;21.00;18.00;;;;;;;;5080616;27;51614;-58
2022/06/18 00:53:08;;;;;;;;;20.75;18.25;;;;;;;;5081052;27;51530;-59
2022/06/18 00:56:05;;;;;;;;;16.50;15.50;;;;;;;;5081010;27;51117;-58
2022/06/18 00:58:54;;;;;;;;;15.75;14.50;;;;;;;;5081287;27;51095;-59
2022/06/18 01:01:45;;;;;;;;;21.25;18.25;;;;;;;;5080801;27;51218;-58
2022/06/18 01:04:31;;;;;;;;;20.25;16.00;;;;;;;;5081010;27;51562;-58
2022/06/18 01:07:31;;;;;;;;;16.75;16.00;;;;;;;;5077818;27;51095;-58
2022/06/18 01:10:26;;;;;;;;;17.75;15.00;;;;;;;;5081051;27;51092;-59
2022/06/18 01:13:13;;;;;;;;;19.00;15.75;;;;;;;;5080262;27;51430;-58
2022/06/18 01:15:59;;;;;;;;;15.25;14.75;;;;;;;;5065230;27;51175;-58
2022/06/18 01:18:43;;;;;;;;;15.50;14.50;;;;;;;;5080765;27;51415;-57
2022/06/18 01:21:46;;;;;;;;;17.50;16.00;;;;;;;;5080443;27;51072;-59
2022/06/18 01:24:38;;;;;;;;;13.00;12.25;;;;;;;;5080817;27;51158;-58
2022/06/18 01:27:25;;;;;;;;;19.50;17.50;;;;;;;;5080393;27;51199;-59
2022/06/18 01:30:14;;;;;;;;;16.50;15.25;;;;;;;;5077381;27;51193;-58
2022/06/18 01:33:01;;;;;;;;;19.00;14.50;;;;;;;;5080001;27;51268;-58
2022/06/18 01:35:52;;;;;;;;;15.25;15.25;;;;;;;;5065089;27;51146;-59
2022/06/18 01:38:59;;;;;;;;;19.00;17.50;;;;;;;;5064460;27;51423;-59
2022/06/18 01:41:52;;;;;;;;;12.75;11.75;;;;;;;;5079846;27;51222;-57
2022/06/18 01:44:54;;;;;;;;;19.00;16.75;;;;;;;;5080298;27;51107;-58
2022/06/18 01:47:57;;;;;;;;;18.75;14.00;;;;;;;;5079780;27;51149;-58
2022/06/18 01:50:55;;;;;;;;;14.00;13.00;;;;;;;;5078562;27;51101;-58
2022/06/18 01:53:43;;;;;;;;;13.50;12.00;;;;;;;;5079781;27;51081;-59
2022/06/18 01:56:34;;;;;;;;;14.00;13.00;;;;;;;;5079726;27;51549;-58
2022/06/18 01:59:51;;;;;;;;;12.25;11.25;;;;;;;;5079619;27;51179;-58
2022/06/18 02:02:35;;;;;;;;;13.50;11.00;;;;;;;;5079628;27;51526;-58
2022/06/18 02:05:21;;;;;;;;;13.50;11.00;;;;;;;;5079397;27;51340;-58
2022/06/18 02:08:10;;;;;;;;;15.50;11.75;;;;;;;;5079726;27;51508;-58
2022/06/18 02:11:05;;;;;;;;;10.75;10.25;;;;;;;;5079634;27;51154;-58
2022/06/18 02:14:06;;;;;;;;;30.00;24.25;;;;;;;;5079102;28;51091;-60
2022/06/18 02:16:52;;;;;;;;;44.75;33.25;;;;;;;;5079797;28;50957;-57
2022/06/18 02:19:40;;;;;;;;;18.75;17.00;;;;;;;;5079744;28;51135;-57
2022/06/18 02:22:33;;;;;;;;;13.25;13.25;;;;;;;;5064789;28;51391;-58
2022/06/18 02:25:21;;;;;;;;;14.75;12.75;;;;;;;;5079753;28;51185;-57
2022/06/18 02:28:18;;;;;;;;;14.00;12.25;;;;;;;;5080291;28;51026;-58
2022/06/18 02:31:04;;;;;;;;;16.75;13.00;;;;;;;;5079355;28;51035;-58
2022/06/18 02:33:51;;;;;;;;;13.00;12.75;;;;;;;;5079146;28;51079;-58
2022/06/18 02:36:41;;;;;;;;;19.50;18.25;;;;;;;;5079833;28;51012;-59
2022/06/18 02:39:38;;;;;;;;;18.25;14.00;;;;;;;;5066709;27;51102;-57
2022/06/18 02:42:28;;;;;;;;;15.00;14.00;;;;;;;;5083404;27;51140;-58
2022/06/18 02:45:25;;;;;;;;;11.50;10.75;;;;;;;;5069615;27;51176;-58
2022/06/18 02:48:10;;;;;;;;;20.75;17.25;;;;;;;;5083271;27;51515;-57
2022/06/18 02:50:59;;;;;;;;;22.00;16.50;;;;;;;;5083048;27;51098;-58
2022/06/18 02:53:53;;;;;;;;;14.00;12.25;;;;;;;;5083711;27;51158;-58
2022/06/18 02:56:37;;;;;;;;;16.50;15.25;;;;;;;;5083048;27;51563;-58
2022/06/18 02:59:26;;;;;;;;;14.75;14.75;;;;;;;;5080749;27;52578;-58
2022/06/18 03:02:18;;;;;;;;;28.75;21.75;;;;;;;;5083127;27;51143;-59
2022/06/18 03:05:03;;;;;;;;;27.50;24.25;;;;;;;;5082876;27;51116;-58
2022/06/18 03:07:48;;;;;;;;;21.75;18.00;;;;;;;;5082418;27;51414;-58
2022/06/18 03:13:37;;;;;;;;;13.25;11.50;;;;;;;;5069576;27;51352;-58
2022/06/18 03:16:24;;;;;;;;;14.75;11.00;;;;;;;;5078750;27;52112;-58
2022/06/18 03:19:23;;;;;;;;;25.25;19.00;;;;;;;;5082489;27;51110;-58
2022/06/18 03:22:16;;;;;;;;;12.50;10.50;;;;;;;;5077532;27;51549;-58
2022/06/18 03:25:04;;;;;;;;;13.75;12.25;;;;;;;;5080611;27;51231;-57
2022/06/18 03:27:50;;;;;;;;;19.50;15.25;;;;;;;;5082438;27;51655;-57
2022/06/18 03:30:41;;;;;;;;;20.75;17.75;;;;;;;;5082712;27;51147;-57
2022/06/18 03:33:31;;;;;;;;;16.25;14.50;;;;;;;;5082559;27;51014;-58
2022/06/18 03:36:19;;;;;;;;;23.00;19.75;;;;;;;;5082549;27;51111;-59
2022/06/18 03:39:05;;;;;;;;;13.50;12.25;;;;;;;;5082406;27;51079;-58
2022/06/18 03:42:04;;;;;;;;;11.00;9.25;;;;;;;;5081954;27;51099;-58
2022/06/18 03:44:50;;;;;;;;;13.75;9.75;;;;;;;;5082620;27;51181;-59
2022/06/18 03:47:35;;;;;;;;;10.00;10.00;;;;;;;;5082497;27;51385;-58
2022/06/18 03:50:22;;;;;;;;;12.50;9.50;;;;;;;;5082423;27;51178;-58
2022/06/18 03:53:08;;;;;;;;;14.25;12.50;;;;;;;;5066204;27;51389;-58
2022/06/18 03:55:55;;;;;;;;;18.00;13.50;;;;;;;;5082312;27;51082;-58
2022/06/18 03:58:40;;;;;;;;;14.75;12.75;;;;;;;;5082107;27;51170;-58
2022/06/18 04:01:31;;;;;;;;;17.50;13.50;;;;;;;;5082056;27;51191;-58
2022/06/18 04:04:18;;;;;;;;;14.75;13.75;;;;;;;;5082077;27;51166;-58
2022/06/18 04:07:05;;;;;;;;;16.50;13.75;;;;;;;;5081719;27;51071;-58
2022/06/18 04:09:53;;;;;;;;;14.75;14.75;;;;;;;;5082279;27;51119;-57
2022/06/18 04:12:48;;;;;;;;;13.75;12.75;;;;;;;;5081682;27;51434;-57
2022/06/18 04:15:33;;;;;;;;;17.25;15.75;;;;;;;;5082024;27;50998;-58
2022/06/18 04:18:21;;;;;;;;;14.75;14.75;;;;;;;;5081576;27;51131;-58
2022/06/18 04:21:05;;;;;;;;;22.75;19.00;;;;;;;;5081893;27;51092;-58
2022/06/18 04:23:55;;;;;;;;;20.00;16.00;;;;;;;;5081625;27;51439;-58
2022/06/18 04:26:41;;;;;;;;;22.25;16.75;;;;;;;;5081769;27;51004;-57
2022/06/18 04:29:28;;;;;;;;;16.00;16.00;;;;;;;;5081761;27;51182;-58
2022/06/18 04:32:20;;;;;;;;;18.50;13.25;;;;;;;;5077440;27;51237;-59
2022/06/18 04:35:15;;;;;;;;;20.50;18.00;;;;;;;;5080907;27;51491;-58
2022/06/18 04:38:06;;;;;;;;;19.25;18.00;;;;;;;;5080260;27;51104;-58
2022/06/18 04:40:51;;;;;;;;;23.00;17.75;;;;;;;;5080789;27;51376;-59
2022/06/18 04:43:39;;;;;;;;;18.00;15.25;;;;;;;;5081338;27;51302;-58
2022/06/18 04:46:29;;;;;;;;;16.75;15.00;;;;;;;;5081382;27;51096;-58
2022/06/18 04:49:17;;;;;;;;;16.50;16.50;;;;;;;;5081017;27;51368;-58
2022/06/18 04:52:15;;;;;;;;;19.00;15.25;;;;;;;;5080351;27;51219;-58
2022/06/18 04:55:00;;;;;;;;;19.00;14.50;;;;;;;;5080563;27;51131;-57
2022/06/18 04:57:45;;;;;;;;;18.50;15.25;;;;;;;;5080805;27;51108;-58
2022/06/18 05:00:30;;;;;;;;;20.75;17.50;;;;;;;;5081174;27;51110;-59
2022/06/18 05:03:16;;;;;;;;;16.00;15.00;;;;;;;;5080800;27;51376;-58
2022/06/18 05:06:02;;;;;;;;;19.25;13.25;;;;;;;;5080699;27;51091;-57
2022/06/18 05:08:49;;;;;;;;;19.75;16.25;;;;;;;;5080402;27;51709;-58
2022/06/18 05:11:35;;;;;;;;;22.00;19.75;;;;;;;;5080781;27;50976;-58
2022/06/18 05:14:19;;;;;;;;;18.50;17.25;;;;;;;;5080382;27;51484;-57
2022/06/18 05:17:06;;;;;;;;;24.75;22.50;;;;;;;;5080496;27;51017;-58
2022/06/18 05:19:50;;;;;;;;;19.00;17.50;;;;;;;;5080711;27;51446;-58
2022/06/18 05:22:35;;;;;;;;;21.50;20.25;;;;;;;;5080329;27;51194;-58
2022/06/18 05:25:35;;;;;;;;;17.00;15.00;;;;;;;;5080830;27;51052;-58
2022/06/18 05:28:22;;;;;;;;;21.50;17.00;;;;;;;;5080403;27;51146;-56
2022/06/18 05:31:07;;;;;;;;;20.75;20.75;;;;;;;;5080201;27;50988;-58
2022/06/18 05:33:52;;;;;;;;;24.75;24.00;;;;;;;;5075557;27;51100;-58
2022/06/18 05:36:37;;;;;;;;;22.25;22.00;;;;;;;;5079816;27;51106;-58
2022/06/18 05:39:22;;;;;;;;;25.75;25.25;;;;;;;;5078647;27;51351;-59
2022/06/18 05:42:08;;;;;;;;;23.00;21.50;;;;;;;;5079407;27;51035;-58
2022/06/18 05:44:54;;;;;;;;;20.25;20.25;;;;;;;;5080176;27;51063;-58
2022/06/18 05:47:53;;;;;;;;;26.00;22.25;;;;;;;;5079896;27;51119;-57
2022/06/18 05:50:39;;;;;;;;;34.25;25.75;;;;;;;;5066694;27;51170;-59
2022/06/18 05:53:30;;;;;;;;;28.25;27.75;;;;;;;;5079560;27;51551;-58
2022/06/18 05:56:26;;;;;;;;;47.00;38.25;;;;;;;;5079546;27;51207;-58
2022/06/18 05:59:32;;;;;;;;;76.75;64.00;;;;;;;;5079713;27;51158;-58
2022/06/18 06:02:48;;;;;;;;;66.75;51.75;;;;;;;;5080637;27;51241;-58
2022/06/18 06:05:32;;;;;;;;;38.75;32.50;;;;;;;;5079316;27;51195;-58
2022/06/18 06:08:20;;;;;;;;;32.75;26.25;;;;;;;;5078476;27;51107;-58
2022/06/18 06:14:08;;;;;;;;;35.50;30.25;;;;;;;;5072492;27;51063;-58
2022/06/18 06:16:54;;;;;;;;;29.75;26.00;;;;;;;;5079725;28;51012;-59
2022/06/18 06:19:39;;;;;;;;;29.00;27.50;;;;;;;;5077991;28;51124;-58
2022/06/18 06:22:26;;;;;;;;;28.75;27.00;;;;;;;;5078548;28;51192;-58
2022/06/18 06:25:23;;;;;;;;;25.25;25.25;;;;;;;;5079699;28;51172;-58
2022/06/18 06:28:37;;;;;;;;;29.25;23.75;;;;;;;;5076803;28;51024;-59
2022/06/18 06:31:23;;;;;;;;;40.75;33.00;;;;;;;;5078954;28;51368;-59
2022/06/18 06:34:08;;;;;;;;;41.50;35.00;;;;;;;;5073180;28;51421;-58
2022/06/18 06:36:53;;;;;;;;;38.50;33.00;;;;;;;;5076587;28;51146;-58
2022/06/18 06:39:38;;;;;;;;;48.00;36.75;;;;;;;;5078318;28;51253;-59
2022/06/18 06:42:25;;;;;;;;;43.50;34.25;;;;;;;;5079403;28;51063;-58
2022/06/18 06:45:10;;;;;;;;;42.25;36.75;;;;;;;;5079339;28;51151;-58
2022/06/18 06:47:55;;;;;;;;;44.75;38.00;;;;;;;;5079421;28;51061;-58
2022/06/18 06:50:43;;;;;;;;;41.50;32.50;;;;;;;;5079288;28;50953;-58
2022/06/18 06:53:27;;;;;;;;;38.50;30.75;;;;;;;;5079318;28;51228;-58
2022/06/18 06:59:18;;;;;;;;;35.00;30.75;;;;;;;;5079522;28;50979;-58
2022/06/18 07:02:11;;;;;;;;;39.00;31.75;;;;;;;;5079375;28;51042;-58
2022/06/18 07:05:06;;;;;;;;;40.75;33.50;;;;;;;;5079226;28;51084;-59
2022/06/18 07:07:53;;;;;;;;;44.75;36.00;;;;;;;;5079759;28;51093;-58
2022/06/18 07:10:39;;;;;;;;;41.50;33.25;;;;;;;;5057309;28;51402;-58
2022/06/18 07:13:25;;;;;;;;;46.75;36.00;;;;;;;;5055215;28;51166;-57
2022/06/18 07:16:13;;;;;;;;;39.75;32.50;;;;;;;;5058460;28;51342;-58
2022/06/18 07:18:59;;;;;;;;;43.50;35.25;;;;;;;;5059004;28;51055;-57
2022/06/18 07:21:46;;;;;;;;;47.50;39.25;;;;;;;;5058613;28;51380;-58
2022/06/18 07:24:32;;;;;;;;;46.00;36.75;;;;;;;;5058676;28;51096;-58
2022/06/18 07:27:20;;;;;;;;;46.75;35.00;;;;;;;;5060368;28;51088;-58
2022/06/18 07:30:33;;;;;;;;;36.75;32.00;;;;;;;;5053576;28;51110;-58
2022/06/18 07:33:31;;;;;;;;;41.50;35.00;;;;;;;;5052923;28;51030;-58
2022/06/18 07:36:19;;;;;;;;;42.50;33.25;;;;;;;;5060413;28;51292;-58
2022/06/18 07:39:23;;;;;;;;;36.50;32.50;;;;;;;;5061332;28;51173;-58
2022/06/18 07:42:15;;;;;;;;;41.50;35.50;;;;;;;;5053174;27;51186;-58
2022/06/18 07:45:01;;;;;;;;;40.25;33.00;;;;;;;;5061391;27;51165;-58
2022/06/18 07:47:46;;;;;;;;;41.00;34.75;;;;;;;;5059448;28;51100;-59
2022/06/18 07:50:44;;;;;;;;;40.00;33.75;;;;;;;;5046614;28;51172;-59
2022/06/18 07:53:32;;;;;;;;;45.00;35.75;;;;;;;;5061968;28;51503;-58
2022/06/18 07:56:20;;;;;;;;;29.25;27.75;;;;;;;;5061947;28;51198;-58
2022/06/18 07:59:07;;;;;;;;;34.25;29.25;;;;;;;;5061707;28;51116;-58
2022/06/18 08:01:54;;;;;;;;;31.50;30.00;;;;;;;;5062158;28;51292;-59
2022/06/18 08:05:07;;;;;;;;;31.75;28.75;;;;;;;;5061985;28;51741;-58
2022/06/18 08:07:52;;;;;;;;;33.75;30.25;;;;;;;;5057801;28;51001;-59
2022/06/18 08:10:37;;;;;;;;;36.50;31.00;;;;;;;;5061719;28;51032;-58
2022/06/18 08:13:22;;;;;;;;;39.50;32.50;;;;;;;;5062573;28;51372;-58
2022/06/18 08:16:09;;;;;;;;;36.00;30.00;;;;;;;;5061303;28;51110;-59
2022/06/18 08:18:55;;;;;;;;;31.75;29.75;;;;;;;;5061292;28;51575;-59
2022/06/18 08:21:52;;;;;;;;;35.00;31.75;;;;;;;;5061477;28;51092;-59
2022/06/18 08:24:37;;;;;;;;;33.25;30.50;;;;;;;;5061884;28;51136;-58
2022/06/18 08:27:21;;;;;;;;;32.50;30.00;;;;;;;;5061085;28;51038;-58
2022/06/18 08:30:07;;;;;;;;;42.75;32.50;;;;;;;;5061404;28;51528;-58
2022/06/18 08:32:55;;;;;;;;;36.25;28.50;;;;;;;;5010649;28;51171;-58
2022/06/18 08:35:39;;;;;;;;;37.75;30.50;;;;;;;;5057655;28;51083;-58
2022/06/18 08:38:24;;;;;;;;;43.25;35.00;;;;;;;;5060018;28;51434;-58
2022/06/18 08:41:37;;;;;;;;;18.75;16.75;;;;;;;;5060592;28;51084;-57
2022/06/18 08:44:35;;;;;;;;;30.50;28.50;;;;;;;;5060294;28;51419;-58
2022/06/18 08:47:41;;;;;;;;;28.50;23.25;;;;;;;;5060734;28;51165;-58
2022/06/18 08:50:31;;;;;;;;;29.00;27.25;;;;;;;;5060805;28;51179;-59
2022/06/18 08:53:29;;;;;;;;;31.25;29.00;;;;;;;;5060051;28;51460;-58
2022/06/18 08:56:25;;;;;;;;;30.00;25.50;;;;;;;;5060629;28;51102;-58
2022/06/18 08:59:12;;;;;;;;;28.50;28.50;;;;;;;;5060355;28;51141;-58
2022/06/18 09:02:15;;;;;;;;;37.50;28.50;;;;;;;;5045315;28;51115;-59
2022/06/18 09:05:15;;;;;;;;;30.75;27.00;;;;;;;;5060312;28;51067;-59
2022/06/18 09:08:17;;;;;;;;;24.75;22.50;;;;;;;;5060661;28;51170;-58
2022/06/18 09:11:02;;;;;;;;;20.75;19.25;;;;;;;;5060222;28;51074;-59
2022/06/18 09:13:49;;;;;;;;;25.00;20.00;;;;;;;;5059547;28;51071;-59
2022/06/18 09:16:38;;;;;;;;;22.00;19.25;;;;;;;;5059566;28;51306;-57
2022/06/18 09:19:26;;;;;;;;;23.75;20.00;;;;;;;;5059870;28;51108;-59
2022/06/18 09:22:14;;;;;;;;;26.50;22.50;;;;;;;;5059828;28;51197;-59
2022/06/18 09:25:02;;;;;;;;;18.50;18.50;;;;;;;;5060287;28;51622;-59
2022/06/18 09:28:03;;;;;;;;;19.00;19.00;;;;;;;;5060271;28;51086;-58
2022/06/18 09:31:08;;;;;;;;;22.00;18.75;;;;;;;;5059432;28;51392;-58
2022/06/18 09:34:00;;;;;;;;;22.75;19.00;;;;;;;;5059040;28;51144;-58
2022/06/18 09:36:55;;;;;;;;;16.50;15.00;;;;;;;;5045037;28;51456;-58
2022/06/18 09:39:42;;;;;;;;;20.00;16.75;;;;;;;;5051952;28;51084;-58
2022/06/18 09:42:39;;;;;;;;;21.75;19.25;;;;;;;;5059532;28;51211;-59
2022/06/18 09:45:59;;;;;;;;;17.25;16.00;;;;;;;;5060185;27;51615;-58
2022/06/18 09:48:48;;;;;;;;;18.00;16.75;;;;;;;;5056446;27;51522;-58
2022/06/18 09:52:10;;;;;;;;;18.75;17.75;;;;;;;;5059705;27;51103;-58
2022/06/18 09:54:58;;;;;;;;;17.25;16.25;;;;;;;;5059075;28;51229;-58
2022/06/18 09:58:03;;;;;;;;;20.50;18.75;;;;;;;;5043801;28;51384;-58
2022/06/18 10:00:49;;;;;;;;;26.50;23.25;;;;;;;;5059107;28;51035;-55
2022/06/18 10:06:56;;;;;;;;;21.00;20.25;;;;;;;;5058000;28;51095;-58
2022/06/18 10:10:03;;;;;;;;;22.00;18.00;;;;;;;;5056421;28;51556;-59
2022/06/18 10:12:50;;;;;;;;;15.00;13.50;;;;;;;;5038752;28;51053;-60
2022/06/18 10:15:35;;;;;;;;;17.25;14.25;;;;;;;;5039130;28;51160;-59
2022/06/18 10:18:42;;;;;;;;;18.00;15.25;;;;;;;;5038750;28;51136;-58
2022/06/18 10:21:29;;;;;;;;;16.00;14.00;;;;;;;;5023931;28;51051;-59
2022/06/18 10:24:19;;;;;;;;;18.50;16.25;;;;;;;;5038169;28;51086;-59
2022/06/18 10:27:07;;;;;;;;;18.50;15.00;;;;;;;;5034025;28;51109;-58
2022/06/18 10:29:59;;;;;;;;;15.75;15.00;;;;;;;;5038325;28;51385;-57
2022/06/18 10:33:04;;;;;;;;;21.50;18.75;;;;;;;;5038741;28;51322;-58
2022/06/18 10:36:04;;;;;;;;;18.50;16.50;;;;;;;;5031572;28;51169;-59
2022/06/18 10:39:17;;;;;;;;;18.50;17.25;;;;;;;;5037851;28;51167;-58
2022/06/18 10:42:08;;;;;;;;;22.00;17.00;;;;;;;;5036497;28;51447;-59
2022/06/18 10:44:58;;;;;;;;;17.25;17.00;;;;;;;;5040220;28;51093;-59
2022/06/18 10:47:48;;;;;;;;;18.00;18.00;;;;;;;;5038342;28;51139;-59
2022/06/18 10:50:46;;;;;;;;;19.50;15.75;;;;;;;;5035078;28;51486;-58
2022/06/18 10:53:36;;;;;;;;;20.00;18.50;;;;;;;;5022929;28;51173;-58
2022/06/18 10:56:27;;;;;;;;;15.75;15.75;;;;;;;;5038075;28;51089;-58
2022/06/18 10:59:32;;;;;;;;;20.00;17.25;;;;;;;;5038268;28;51085;-58
2022/06/18 11:02:43;;;;;;;;;21.25;18.50;;;;;;;;5041500;28;50359;-58
2022/06/18 11:05:36;;;;;;;;;22.50;16.50;;;;;;;;5033471;28;51462;-58
2022/06/18 11:08:22;;;;;;;;;21.00;17.75;;;;;;;;5056835;28;51480;-58
2022/06/18 11:11:30;;;;;;;;;24.00;22.00;;;;;;;;5057057;28;51206;-59
2022/06/18 11:14:19;;;;;;;;;25.50;23.25;;;;;;;;5055236;28;51092;-58
2022/06/18 11:17:17;;;;;;;;;25.75;22.50;;;;;;;;5053715;27;51433;-58
2022/06/18 11:20:22;;;;;;;;;27.50;24.50;;;;;;;;5055110;28;51135;-59
2022/06/18 11:23:16;;;;;;;;;20.00;19.50;;;;;;;;5063491;27;51178;-58
2022/06/18 11:26:10;;;;;;;;;28.75;22.75;;;;;;;;5061912;28;51108;-57
2022/06/18 11:29:04;;;;;;;;;26.50;23.00;;;;;;;;5043547;28;51131;-58
2022/06/18 11:31:53;;;;;;;;;21.25;20.25;;;;;;;;5061227;28;51206;-58
2022/06/18 11:34:41;;;;;;;;;28.75;25.25;;;;;;;;5060585;28;51046;-58
2022/06/18 11:37:47;;;;;;;;;30.25;23.00;;;;;;;;5061117;28;51162;-58
2022/06/18 11:40:36;;;;;;;;;20.25;20.00;;;;;;;;5061631;28;51100;-59
2022/06/18 11:43:43;;;;;;;;;22.00;19.25;;;;;;;;5061384;28;51082;-57
2022/06/18 11:46:29;;;;;;;;;16.50;15.00;;;;;;;;5060822;28;51405;-58
2022/06/18 11:49:45;;;;;;;;;24.75;18.75;;;;;;;;5063946;28;51206;-58
2022/06/18 11:52:49;;;;;;;;;22.50;21.00;;;;;;;;5060661;28;51068;-58
2022/06/18 11:56:05;;;;;;;;;22.50;19.25;;;;;;;;5061159;28;51399;-59
2022/06/18 11:59:12;;;;;;;;;19.75;16.75;;;;;;;;5057761;28;51189;-58
2022/06/18 12:02:10;;;;;;;;;21.75;21.00;;;;;;;;5060659;28;51132;-59
2022/06/18 12:05:19;;;;;;;;;16.50;15.50;;;;;;;;5057825;28;51215;-58
2022/06/18 12:08:05;;;;;;;;;22.50;20.00;;;;;;;;5057697;28;51182;-58
2022/06/18 12:11:00;;;;;;;;;30.50;27.75;;;;;;;;5060577;28;51127;-58
2022/06/18 12:14:07;;;;;;;;;25.25;19.75;;;;;;;;5073209;27;51345;-57
2022/06/18 12:16:58;;;;;;;;;57.75;46.50;;;;;;;;5054405;28;51147;-58
2022/06/18 12:19:47;;;;;;;;;21.25;21.25;;;;;;;;5061835;27;51147;-58
2022/06/18 12:22:35;;;;;;;;;26.00;26.00;;;;;;;;5058390;28;51270;-57
2022/06/18 12:25:37;;;;;;;;;20.25;18.75;;;;;;;;5060900;28;51488;-59
2022/06/18 12:28:40;;;;;;;;;23.75;18.25;;;;;;;;5055319;28;51596;-58
2022/06/18 12:31:46;;;;;;;;;21.50;17.50;;;;;;;;5060871;28;51201;-59
2022/06/18 12:34:42;;;;;;;;;18.50;18.25;;;;;;;;5057110;28;51215;-58
2022/06/18 12:37:42;;;;;;;;;22.50;18.00;;;;;;;;5060582;28;51178;-58
2022/06/18 12:40:35;;;;;;;;;22.00;19.50;;;;;;;;5060221;28;51110;-58
2022/06/18 12:43:38;;;;;;;;;24.75;24.00;;;;;;;;5065585;27;51287;-58
2022/06/18 12:46:47;;;;;;;;;28.50;22.75;;;;;;;;5059109;28;51024;-59
2022/06/18 12:49:48;;;;;;;;;27.50;22.25;;;;;;;;5055013;28;51083;-59
2022/06/18 12:52:58;;;;;;;;;21.50;21.25;;;;;;;;5052040;28;51040;-58
2022/06/18 12:56:05;;;;;;;;;24.25;21.75;;;;;;;;5060346;28;51548;-58
2022/06/18 12:59:08;;;;;;;;;22.25;18.50;;;;;;;;5049065;27;51636;-58
2022/06/18 13:01:52;;;;;;;;;23.25;19.00;;;;;;;;5059544;27;51119;-58
2022/06/18 13:04:56;;;;;;;;;18.50;16.25;;;;;;;;5060066;27;51173;-58
2022/06/18 13:07:44;;;;;;;;;19.25;16.75;;;;;;;;5062362;27;51201;-58
2022/06/18 13:10:43;;;;;;;;;16.50;16.25;;;;;;;;5069565;27;51166;-58
2022/06/18 13:13:57;;;;;;;;;20.75;18.50;;;;;;;;5054762;28;51051;-58
2022/06/18 13:16:50;;;;;;;;;24.50;23.25;;;;;;;;5061144;28;51245;-58
2022/06/18 13:19:43;;;;;;;;;23.00;20.25;;;;;;;;5059772;28;51567;-58
2022/06/18 13:22:27;;;;;;;;;17.50;17.25;;;;;;;;5057098;28;51190;-58
2022/06/18 13:28:36;;;;;;;;;17.00;16.50;;;;;;;;5048690;28;51200;-59
2022/06/18 13:31:39;;;;;;;;;18.50;16.00;;;;;;;;5059913;28;51492;-59
2022/06/18 13:34:23;;;;;;;;;18.00;17.50;;;;;;;;5052753;28;51151;-58
2022/06/18 13:37:40;;;;;;;;;15.25;14.50;;;;;;;;5058903;28;51175;-58
2022/06/18 13:40:33;;;;;;;;;16.75;14.50;;;;;;;;5032123;27;51130;-58
2022/06/18 13:43:44;;;;;;;;;17.00;14.00;;;;;;;;5061640;27;51156;-59
2022/06/18 13:46:37;;;;;;;;;15.50;13.75;;;;;;;;5061011;28;51195;-58
2022/06/18 13:49:27;;;;;;;;;11.75;10.00;;;;;;;;5058522;28;51495;-58
2022/06/18 13:52:20;;;;;;;;;11.75;10.75;;;;;;;;5059759;28;51591;-58
2022/06/18 13:55:05;;;;;;;;;14.50;12.25;;;;;;;;5055412;28;51131;-58
2022/06/18 13:57:50;;;;;;;;;12.25;9.00;;;;;;;;5053034;28;51169;-58
2022/06/18 14:00:36;;;;;;;;;7.25;7.00;;;;;;;;5060359;27;51182;-59
2022/06/18 14:03:23;;;;;;;;;10.00;7.00;;;;;;;;5058574;28;51215;-58
2022/06/18 14:06:19;;;;;;;;;6.75;5.00;;;;;;;;5057941;28;51217;-58
2022/06/18 14:09:11;;;;;;;;;7.50;7.50;;;;;;;;5021315;28;51092;-58
2022/06/18 14:15:13;;;;;;;;;9.50;9.50;;;;;;;;5053450;28;51400;-58
2022/06/18 14:17:59;;;;;;;;;5.75;4.75;;;;;;;;5077081;27;51183;-58
2022/06/18 14:20:53;;;;;;;;;6.25;3.75;;;;;;;;5079142;28;51057;-58
2022/06/18 14:23:39;;;;;;;;;6.75;5.50;;;;;;;;5077501;28;51153;-59
2022/06/18 14:26:23;;;;;;;;;7.00;5.00;;;;;;;;5078256;28;51179;-58
2022/06/18 14:29:08;;;;;;;;;8.75;5.25;;;;;;;;5079656;28;51115;-59
2022/06/18 14:32:25;;;;;;;;;7.75;6.50;;;;;;;;5078060;28;51597;-58
2022/06/18 14:35:12;;;;;;;;;7.75;6.25;;;;;;;;5044672;27;51007;-58
2022/06/18 14:37:56;;;;;;;;;7.25;5.75;;;;;;;;5082958;27;51195;-58
2022/06/18 14:43:55;;;;;;;;;7.50;6.00;;;;;;;;5081887;27;51040;-57
2022/06/18 14:46:58;;;;;;;;;11.00;9.75;;;;;;;;5081635;27;51114;-58
2022/06/18 14:50:01;;;;;;;;;10.00;7.75;;;;;;;;5080734;27;51058;-58
2022/06/18 14:52:47;;;;;;;;;9.75;6.00;;;;;;;;5081436;27;51155;-58
2022/06/18 14:55:49;;;;;;;;;9.75;9.00;;;;;;;;5075104;27;51434;-58
2022/06/18 14:58:41;;;;;;;;;10.25;10.25;;;;;;;;5079589;27;51465;-59
2022/06/18 15:01:29;;;;;;;;;10.00;10.00;;;;;;;;5081891;27;50996;-59
2022/06/18 15:04:16;;;;;;;;;11.75;10.00;;;;;;;;5081177;27;51230;-58
2022/06/18 15:07:08;;;;;;;;;15.25;11.75;;;;;;;;5082792;27;51091;-59
2022/06/18 15:09:53;;;;;;;;;16.75;13.25;;;;;;;;5082379;27;51165;-59
2022/06/18 15:12:38;;;;;;;;;14.75;12.25;;;;;;;;5080299;27;51125;-57
2022/06/18 15:15:40;;;;;;;;;11.25;10.25;;;;;;;;5066910;27;52543;-58
2022/06/18 15:18:39;;;;;;;;;13.50;11.00;;;;;;;;5082732;27;51196;-57
2022/06/18 15:21:34;;;;;;;;;14.25;12.50;;;;;;;;5081250;27;51409;-57
2022/06/18 15:27:27;;;;;;;;;15.00;12.50;;;;;;;;5080679;27;51021;-58
2022/06/18 15:30:32;;;;;;;;;13.00;12.25;;;;;;;;5081593;27;51155;-57
2022/06/18 15:33:20;;;;;;;;;10.50;10.00;;;;;;;;5082399;27;51112;-58
2022/06/18 15:36:21;;;;;;;;;12.00;11.50;;;;;;;;5082476;27;51203;-57
2022/06/18 15:39:21;;;;;;;;;17.00;15.50;;;;;;;;5082748;27;51131;-57
2022/06/18 15:42:15;;;;;;;;;22.75;16.50;;;;;;;;5080467;27;51085;-58
2022/06/18 15:45:01;;;;;;;;;14.75;13.00;;;;;;;;5079899;27;51068;-57
2022/06/18 15:47:49;;;;;;;;;17.50;15.25;;;;;;;;5081005;27;51526;-57
2022/06/18 15:50:40;;;;;;;;;12.75;10.00;;;;;;;;5081548;27;51134;-58
2022/06/18 15:53:25;;;;;;;;;15.00;14.00;;;;;;;;5066341;27;51618;-57
2022/06/18 15:56:16;;;;;;;;;14.75;12.00;;;;;;;;5073275;27;51287;-58
2022/06/18 15:59:08;;;;;;;;;18.00;14.50;;;;;;;;5079536;27;51124;-58
2022/06/18 16:01:56;;;;;;;;;11.00;11.00;;;;;;;;5079744;27;51209;-58
2022/06/18 16:04:42;;;;;;;;;15.75;14.25;;;;;;;;5063860;27;51222;-57
2022/06/18 16:07:38;;;;;;;;;12.25;12.25;;;;;;;;5081593;27;51542;-58
2022/06/18 16:10:30;;;;;;;;;17.75;15.00;;;;;;;;5081877;27;51111;-58
2022/06/18 16:13:25;;;;;;;;;17.50;16.00;;;;;;;;5081258;27;51533;-58
2022/06/18 16:16:37;;;;;;;;;19.75;16.00;;;;;;;;5080732;27;51043;-58
2022/06/18 16:19:23;;;;;;;;;17.25;12.75;;;;;;;;5080527;27;51407;-57
2022/06/18 16:22:23;;;;;;;;;19.50;16.00;;;;;;;;5076825;27;51188;-57
2022/06/18 16:25:22;;;;;;;;;20.00;17.50;;;;;;;;5073214;27;51591;-58
2022/06/18 16:28:36;;;;;;;;;21.00;16.75;;;;;;;;5080943;27;51120;-58
2022/06/18 16:31:23;;;;;;;;;17.00;16.25;;;;;;;;5043245;27;51177;-57
2022/06/18 16:34:12;;;;;;;;;23.00;15.50;;;;;;;;5079355;27;51559;-57
2022/06/18 16:37:11;;;;;;;;;23.75;17.50;;;;;;;;5079631;27;51074;-57
2022/06/18 16:40:13;;;;;;;;;19.75;17.00;;;;;;;;5080995;27;51512;-57
2022/06/18 16:42:57;;;;;;;;;21.75;20.25;;;;;;;;5081182;27;51466;-58
2022/06/18 16:45:41;;;;;;;;;23.50;20.00;;;;;;;;5080290;27;51083;-57
2022/06/18 16:48:37;;;;;;;;;17.00;15.00;;;;;;;;5079161;27;51129;-58
2022/06/18 16:51:39;;;;;;;;;21.75;18.00;;;;;;;;5080721;27;51163;-57
2022/06/18 16:54:29;;;;;;;;;22.75;18.50;;;;;;;;5079450;27;51111;-56
2022/06/18 16:57:27;;;;;;;;;27.50;19.25;;;;;;;;5071998;27;51256;-58
2022/06/18 17:00:16;;;;;;;;;20.50;17.75;;;;;;;;5062881;27;51395;-58
2022/06/18 17:03:03;;;;;;;;;21.75;18.75;;;;;;;;5078164;27;51094;-56
2022/06/18 17:05:49;;;;;;;;;23.25;19.50;;;;;;;;5077697;27;51378;-58
2022/06/18 17:08:34;;;;;;;;;17.75;15.75;;;;;;;;5080090;27;51034;-58
2022/06/18 17:11:18;;;;;;;;;26.75;21.75;;;;;;;;5080296;27;51526;-58
2022/06/18 17:14:09;;;;;;;;;32.75;29.75;;;;;;;;5078402;27;51238;-57